createdAt,value
2023-02-22T00:00:19.473Z,54.05
2023-02-22T00:02:46.622Z,53.97
2023-02-22T00:05:16.642Z,53.99
2023-02-22T00:07:44.610Z,54.01
2023-02-22T00:10:13.412Z,54.08
2023-02-22T00:12:42.545Z,54.25
2023-02-22T00:15:09.261Z,54.11
2023-02-22T00:17:35.747Z,54.05
2023-02-22T00:20:05.525Z,54.16
2023-02-22T00:22:31.853Z,53.95
2023-02-22T00:24:58.188Z,54.12
2023-02-22T00:27:24.513Z,54.01
2023-02-22T00:29:50.864Z,54.10
2023-02-22T00:32:17.318Z,54.09
2023-02-22T00:34:43.703Z,53.91
2023-02-22T00:37:10.398Z,53.94
2023-02-22T00:39:36.737Z,53.84
2023-02-22T00:42:03.931Z,54.04
2023-02-22T00:44:30.316Z,53.95
2023-02-22T00:46:56.670Z,53.98
2023-02-22T00:49:23.044Z,53.76
2023-02-22T00:51:49.671Z,53.77
2023-02-22T00:54:18.421Z,53.83
2023-02-22T00:56:44.775Z,53.65
2023-02-22T00:59:11.156Z,53.71
2023-02-22T01:01:37.515Z,53.92
2023-02-22T01:04:03.991Z,53.72
2023-02-22T01:06:31.329Z,53.68
2023-02-22T01:08:58.136Z,53.84
2023-02-22T01:11:24.472Z,53.67
2023-02-22T01:13:54.080Z,53.61
2023-02-22T01:16:21.081Z,53.62
2023-02-22T01:18:47.435Z,53.62
2023-02-22T01:21:14.010Z,53.55
2023-02-22T01:23:41.139Z,53.67
2023-02-22T01:26:07.485Z,53.74
2023-02-22T01:28:33.941Z,53.67
2023-02-22T01:31:02.983Z,53.60
2023-02-22T01:33:29.354Z,53.64
2023-02-22T01:35:55.689Z,53.57
2023-02-22T01:38:22.049Z,53.43
2023-02-22T01:40:48.804Z,53.58
2023-02-22T01:43:16.822Z,53.40
2023-02-22T01:45:47.949Z,53.45
2023-02-22T01:48:16.120Z,53.53
2023-02-22T01:50:44.267Z,53.33
2023-02-22T01:53:13.168Z,53.36
2023-02-22T01:55:39.537Z,53.42
2023-02-22T01:58:05.923Z,53.46
2023-02-22T02:00:32.299Z,53.28
2023-02-22T02:03:00.005Z,53.31
2023-02-22T02:05:26.875Z,53.16
2023-02-22T02:07:53.329Z,53.32
2023-02-22T02:10:21.364Z,53.10
2023-02-22T02:12:48.763Z,53.33
2023-02-22T02:15:25.504Z,53.34
2023-02-22T02:17:52.198Z,53.21
2023-02-22T02:20:30.772Z,53.28
2023-02-22T02:23:16.001Z,53.45
2023-02-22T02:26:03.900Z,53.48
2023-02-22T02:28:48.835Z,53.40
2023-02-22T02:31:26.070Z,53.60
2023-02-22T02:34:02.933Z,53.40
2023-02-22T02:36:49.447Z,53.46
2023-02-22T02:39:20.741Z,53.45
2023-02-22T02:41:47.801Z,53.48
2023-02-22T02:44:28.455Z,53.42
2023-02-22T02:47:08.008Z,53.51
2023-02-22T02:49:35.810Z,53.55
2023-02-22T02:52:02.142Z,53.46
2023-02-22T02:54:28.498Z,53.40
2023-02-22T02:56:56.024Z,53.44
2023-02-22T02:59:26.313Z,53.52
2023-02-22T03:01:57.370Z,53.43
2023-02-22T03:04:23.654Z,53.41
2023-02-22T03:06:52.338Z,53.37
2023-02-22T03:09:35.446Z,53.34
2023-02-22T03:12:11.740Z,53.50
2023-02-22T03:14:38.143Z,53.34
2023-02-22T03:17:05.959Z,53.39
2023-02-22T03:19:35.289Z,53.39
2023-02-22T03:22:02.799Z,53.27
2023-02-22T03:24:52.963Z,53.19
2023-02-22T03:27:27.968Z,53.04
2023-02-22T03:30:00.365Z,53.24
2023-02-22T03:32:31.470Z,53.26
2023-02-22T03:34:59.284Z,53.23
2023-02-22T03:37:29.114Z,53.15
2023-02-22T03:39:55.477Z,53.22
2023-02-22T03:42:23.597Z,53.34
2023-02-22T03:44:50.004Z,53.18
2023-02-22T03:47:17.520Z,53.28
2023-02-22T03:49:50.048Z,53.14
2023-02-22T03:52:17.269Z,53.35
2023-02-22T03:54:43.740Z,53.30
2023-02-22T03:57:17.957Z,53.39
2023-02-22T03:59:44.818Z,53.32
2023-02-22T04:02:11.679Z,53.40
2023-02-22T04:04:38.290Z,53.36
2023-02-22T04:07:05.872Z,53.45
2023-02-22T04:09:32.763Z,53.36
2023-02-22T04:11:59.123Z,53.35
2023-02-22T04:14:28.167Z,53.18
2023-02-22T04:16:56.742Z,53.18
2023-02-22T04:19:23.124Z,53.27
2023-02-22T04:21:51.029Z,53.13
2023-02-22T04:24:21.860Z,53.16
2023-02-22T04:26:48.396Z,53.20
2023-02-22T04:29:15.355Z,53.18
2023-02-22T04:31:44.228Z,53.22
2023-02-22T04:34:11.129Z,53.14
2023-02-22T04:36:42.209Z,53.13
2023-02-22T04:39:08.825Z,53.30
2023-02-22T04:41:35.274Z,53.03
2023-02-22T04:44:01.671Z,53.10
2023-02-22T04:46:28.595Z,53.24
2023-02-22T04:48:55.461Z,53.18
2023-02-22T04:51:24.727Z,53.30
2023-02-22T04:53:56.529Z,53.13
2023-02-22T04:56:24.071Z,53.15
2023-02-22T04:58:50.423Z,53.33
2023-02-22T05:01:17.064Z,53.32
2023-02-22T05:03:46.005Z,53.68
2023-02-22T05:06:12.661Z,53.64
2023-02-22T05:08:38.996Z,53.88
2023-02-22T05:11:05.431Z,54.12
2023-02-22T05:13:31.824Z,54.18
2023-02-22T05:15:58.208Z,54.49
2023-02-22T05:18:24.789Z,54.46
2023-02-22T05:20:51.144Z,54.11
2023-02-22T05:23:17.529Z,54.14
2023-02-22T05:25:44.437Z,54.23
2023-02-22T05:28:11.470Z,54.19
2023-02-22T05:30:39.752Z,54.33
2023-02-22T05:33:09.387Z,54.51
2023-02-22T05:35:37.030Z,54.74
2023-02-22T05:38:03.739Z,55.83
2023-02-22T05:40:30.081Z,56.07
2023-02-22T05:42:56.923Z,55.58
2023-02-22T05:45:24.851Z,55.97
2023-02-22T05:47:51.257Z,55.95
2023-02-22T05:50:17.620Z,55.56
2023-02-22T05:52:44.093Z,55.76
2023-02-22T05:55:10.454Z,55.72
2023-02-22T05:57:36.770Z,55.77
2023-02-22T06:00:04.370Z,56.05
2023-02-22T06:02:39.222Z,56.23
2023-02-22T06:05:05.627Z,55.85
2023-02-22T06:07:31.975Z,55.71
2023-02-22T06:09:58.344Z,56.13
2023-02-22T06:12:24.666Z,55.72
2023-02-22T06:14:51.044Z,55.92
2023-02-22T06:17:18.870Z,55.95
2023-02-22T06:19:46.064Z,55.79
2023-02-22T06:22:16.149Z,55.75
2023-02-22T06:24:42.518Z,55.72
2023-02-22T06:27:08.839Z,55.75
2023-02-22T06:29:35.396Z,55.61
2023-02-22T06:32:01.883Z,55.62
2023-02-22T06:34:28.307Z,55.64
2023-02-22T06:36:54.620Z,55.71
2023-02-22T06:39:20.952Z,55.56
2023-02-22T06:41:47.336Z,55.44
2023-02-22T06:44:14.027Z,55.42
2023-02-22T06:46:40.484Z,55.61
2023-02-22T06:49:06.808Z,55.26
2023-02-22T06:51:36.324Z,55.51
2023-02-22T06:54:02.635Z,55.26
2023-02-22T06:56:29.034Z,55.59
2023-02-22T06:58:55.343Z,55.32
2023-02-22T07:01:21.777Z,55.20
2023-02-22T07:03:48.894Z,55.36
2023-02-22T07:06:15.249Z,55.29
2023-02-22T07:08:41.564Z,55.19
2023-02-22T07:11:07.884Z,55.10
2023-02-22T07:13:34.243Z,55.02
2023-02-22T07:16:00.662Z,55.45
2023-02-22T07:18:27.017Z,55.33
2023-02-22T07:20:54.321Z,55.20
2023-02-22T07:23:20.669Z,55.19
2023-02-22T07:25:47.005Z,54.92
2023-02-22T07:28:13.344Z,54.98
2023-02-22T07:30:39.720Z,55.01
2023-02-22T07:33:07.112Z,55.17
2023-02-22T07:35:36.566Z,55.20
2023-02-22T07:38:03.368Z,55.21
2023-02-22T07:40:29.714Z,54.92
2023-02-22T07:42:59.569Z,55.07
2023-02-22T07:45:29.373Z,55.12
2023-02-22T07:47:55.750Z,55.08
2023-02-22T07:50:22.373Z,55.02
2023-02-22T07:52:49.067Z,55.02
2023-02-22T07:55:16.835Z,54.78
2023-02-22T07:57:43.948Z,54.94
2023-02-22T08:00:10.579Z,54.93
2023-02-22T08:02:38.902Z,55.13
2023-02-22T08:05:05.874Z,55.08
2023-02-22T08:07:32.479Z,54.79
2023-02-22T08:09:58.800Z,54.88
2023-02-22T08:12:25.165Z,54.78
2023-02-22T08:14:51.494Z,54.63
2023-02-22T08:17:17.840Z,54.97
2023-02-22T08:19:44.313Z,54.87
2023-02-22T08:22:10.668Z,54.70
2023-02-22T08:24:36.976Z,54.69
2023-02-22T08:27:03.305Z,54.80
2023-02-22T08:29:33.448Z,54.90
2023-02-22T08:32:00.371Z,54.97
2023-02-22T08:34:26.956Z,54.91
2023-02-22T08:36:53.353Z,54.93
2023-02-22T08:39:19.839Z,54.74
2023-02-22T08:41:46.221Z,54.89
2023-02-22T08:44:12.549Z,54.72
2023-02-22T08:46:39.218Z,54.74
2023-02-22T08:49:07.184Z,54.70
2023-02-22T08:51:36.405Z,54.93
2023-02-22T08:54:03.442Z,54.64
2023-02-22T08:56:30.252Z,54.87
2023-02-22T08:58:57.437Z,54.67
2023-02-22T09:01:32.779Z,54.59
2023-02-22T09:03:59.614Z,54.59
2023-02-22T09:06:25.959Z,54.45
2023-02-22T09:08:52.326Z,54.50
2023-02-22T09:11:18.802Z,54.36
2023-02-22T09:13:45.211Z,54.58
2023-02-22T09:16:11.570Z,54.59
2023-02-22T09:18:44.022Z,54.30
2023-02-22T09:21:11.755Z,54.33
2023-02-22T09:23:38.080Z,54.42
2023-02-22T09:26:04.435Z,54.28
2023-02-22T09:28:30.750Z,54.29
2023-02-22T09:30:57.084Z,54.32
2023-02-22T09:33:23.619Z,54.27
2023-02-22T09:35:50.186Z,54.25
2023-02-22T09:38:17.476Z,54.13
2023-02-22T09:40:45.876Z,54.31
2023-02-22T09:43:18.211Z,54.36
2023-02-22T09:46:02.708Z,54.30
2023-02-22T09:48:31.775Z,54.19
2023-02-22T09:50:58.544Z,54.37
2023-02-22T09:53:31.513Z,54.43
2023-02-22T09:55:59.453Z,54.06
2023-02-22T09:58:34.349Z,54.17
2023-02-22T10:01:18.853Z,54.31
2023-02-22T10:03:49.573Z,54.20
2023-02-22T10:06:17.401Z,54.17
2023-02-22T10:08:44.950Z,54.01
2023-02-22T10:11:15.991Z,54.10
2023-02-22T10:13:51.142Z,53.99
2023-02-22T10:16:21.006Z,53.97
2023-02-22T10:19:08.158Z,54.01
2023-02-22T10:21:47.393Z,54.03
2023-02-22T10:24:24.809Z,54.10
2023-02-22T10:26:51.174Z,54.05
2023-02-22T10:29:19.176Z,53.99
2023-02-22T10:31:46.332Z,54.24
2023-02-22T10:34:14.068Z,54.16
2023-02-22T10:36:42.362Z,54.31
2023-02-22T10:39:14.942Z,54.26
2023-02-22T10:41:43.341Z,54.06
2023-02-22T10:44:10.835Z,53.89
2023-02-22T10:46:37.164Z,53.86
2023-02-22T10:49:04.871Z,53.91
2023-02-22T10:51:34.633Z,54.12
2023-02-22T10:54:12.832Z,53.83
2023-02-22T10:56:48.961Z,53.86
2023-02-22T10:59:26.983Z,53.89
2023-02-22T11:01:53.495Z,53.99
2023-02-22T11:04:21.598Z,54.07
2023-02-22T11:06:49.057Z,54.06
2023-02-22T11:09:17.839Z,54.21
2023-02-22T11:11:45.917Z,53.94
2023-02-22T11:14:13.239Z,54.19
2023-02-22T11:16:41.801Z,54.26
2023-02-22T11:19:11.336Z,54.04
2023-02-22T11:21:41.030Z,54.13
2023-02-22T11:24:10.963Z,54.19
2023-02-22T11:26:49.167Z,54.09
2023-02-22T11:29:21.782Z,54.07
2023-02-22T11:31:49.250Z,54.12
2023-02-22T11:34:44.687Z,54.10
2023-02-22T11:37:29.718Z,54.05
2023-02-22T11:40:06.311Z,54.15
2023-02-22T11:42:32.649Z,54.05
2023-02-22T11:45:27.306Z,54.02
2023-02-22T11:47:57.005Z,54.15
2023-02-22T11:50:30.679Z,54.06
2023-02-22T11:53:17.201Z,54.05
2023-02-22T11:55:50.644Z,54.03
2023-02-22T11:58:24.275Z,54.03
2023-02-22T12:00:58.396Z,54.11
2023-02-22T12:03:51.285Z,54.04
2023-02-22T12:06:32.806Z,53.16
2023-02-22T12:09:02.115Z,53.03
2023-02-22T12:11:36.867Z,53.05
2023-02-22T12:14:10.227Z,52.16
2023-02-22T12:16:42.585Z,52.04
2023-02-22T12:19:27.728Z,52.04
2023-02-22T12:21:54.950Z,51.87
2023-02-22T12:24:22.525Z,51.44
2023-02-22T12:27:01.152Z,48.25
2023-02-22T12:29:32.953Z,47.56
2023-02-22T12:32:04.813Z,46.22
2023-02-22T12:34:38.466Z,45.95
2023-02-22T12:37:17.080Z,45.35
2023-02-22T12:39:53.251Z,44.68
2023-02-22T12:42:21.315Z,45.90
2023-02-22T12:44:51.011Z,44.62
2023-02-22T12:47:18.946Z,44.68
2023-02-22T12:49:49.300Z,44.48
2023-02-22T12:52:34.492Z,44.78
2023-02-22T12:55:01.961Z,44.26
2023-02-22T12:57:36.032Z,44.18
2023-02-22T13:00:04.368Z,43.57
2023-02-22T13:02:32.369Z,43.23
2023-02-22T13:04:58.752Z,43.62
2023-02-22T13:07:32.365Z,43.64
2023-02-22T13:10:18.757Z,43.71
2023-02-22T13:12:49.382Z,43.54
2023-02-22T13:15:22.688Z,43.56
2023-02-22T13:17:56.214Z,43.64
2023-02-22T13:20:23.956Z,43.70
2023-02-22T13:22:50.210Z,43.40
2023-02-22T13:25:19.577Z,43.33
2023-02-22T13:27:54.492Z,43.40
2023-02-22T13:30:23.195Z,43.77
2023-02-22T13:33:08.132Z,44.37
2023-02-22T13:35:38.586Z,45.43
2023-02-22T13:38:04.851Z,45.66
2023-02-22T13:40:34.213Z,46.39
2023-02-22T13:43:19.287Z,46.72
2023-02-22T13:45:52.465Z,46.77
2023-02-22T13:48:37.574Z,47.12
2023-02-22T13:51:06.603Z,47.43
2023-02-22T13:53:39.169Z,47.57
2023-02-22T13:56:05.496Z,47.74
2023-02-22T13:58:31.820Z,47.98
2023-02-22T14:00:58.540Z,48.30
2023-02-22T14:03:36.052Z,48.43
2023-02-22T14:06:03.309Z,48.52
2023-02-22T14:08:33.688Z,49.06
2023-02-22T14:11:15.214Z,49.13
2023-02-22T14:13:55.168Z,49.50
2023-02-22T14:16:22.451Z,49.25
2023-02-22T14:18:49.389Z,49.38
2023-02-22T14:21:20.354Z,49.20
2023-02-22T14:23:50.467Z,49.42
2023-02-22T14:26:25.761Z,49.58
2023-02-22T14:28:52.052Z,49.75
2023-02-22T14:31:35.627Z,49.87
2023-02-22T14:34:04.798Z,49.91
2023-02-22T14:36:53.069Z,50.06
2023-02-22T14:39:20.533Z,50.38
2023-02-22T14:41:49.056Z,50.65
2023-02-22T14:44:16.437Z,50.67
2023-02-22T14:46:42.803Z,50.81
2023-02-22T14:49:10.072Z,50.82
2023-02-22T14:51:42.775Z,50.77
2023-02-22T14:54:20.461Z,50.99
2023-02-22T14:57:14.583Z,51.02
2023-02-22T14:59:52.402Z,50.81
2023-02-22T15:02:18.781Z,51.10
2023-02-22T15:04:54.703Z,50.82
2023-02-22T15:07:21.032Z,50.68
2023-02-22T15:09:48.344Z,50.62
2023-02-22T15:12:20.999Z,50.66
2023-02-22T15:14:48.424Z,50.34
2023-02-22T15:17:19.103Z,49.58
2023-02-22T15:19:45.473Z,49.70
2023-02-22T15:22:18.343Z,49.89
2023-02-22T15:24:44.690Z,49.93
2023-02-22T15:27:14.060Z,50.00
2023-02-22T15:29:44.195Z,50.12
2023-02-22T15:32:18.086Z,50.00
2023-02-22T15:34:44.522Z,50.08
2023-02-22T15:37:25.025Z,50.15
2023-02-22T15:39:59.110Z,50.18
2023-02-22T15:42:25.723Z,50.07
2023-02-22T15:44:53.704Z,50.20
2023-02-22T15:47:27.494Z,50.31
2023-02-22T15:50:15.220Z,50.26
2023-02-22T15:53:01.820Z,50.13
2023-02-22T15:55:29.047Z,50.18
2023-02-22T15:57:55.969Z,50.27
2023-02-22T16:00:33.314Z,50.50
2023-02-22T16:02:59.657Z,50.53
2023-02-22T16:05:30.743Z,50.39
2023-02-22T16:07:57.078Z,50.49
2023-02-22T16:10:30.529Z,50.49
2023-02-22T16:13:03.751Z,50.51
2023-02-22T16:15:32.916Z,50.43
2023-02-22T16:18:16.272Z,50.50
2023-02-22T16:20:42.612Z,50.67
2023-02-22T16:23:25.121Z,50.58
2023-02-22T16:26:03.478Z,50.69
2023-02-22T16:29:06.119Z,50.70
2023-02-22T16:31:36.762Z,50.53
2023-02-22T16:34:04.010Z,50.69
2023-02-22T16:36:43.410Z,50.57
2023-02-22T16:39:14.365Z,50.79
2023-02-22T16:41:40.690Z,50.60
2023-02-22T16:44:07.823Z,50.78
2023-02-22T16:46:35.049Z,50.68
2023-02-22T16:49:03.334Z,50.66
2023-02-22T16:51:29.738Z,50.58
2023-02-22T16:53:56.079Z,50.72
2023-02-22T16:56:23.937Z,50.82
2023-02-22T16:58:50.594Z,50.89
2023-02-22T17:01:17.565Z,50.91
2023-02-22T17:03:44.513Z,50.78
2023-02-22T17:06:10.861Z,50.79
2023-02-22T17:08:37.989Z,50.77
2023-02-22T17:11:04.400Z,50.90
2023-02-22T17:13:30.734Z,50.84
2023-02-22T17:15:57.163Z,51.01
2023-02-22T17:18:24.049Z,50.96
2023-02-22T17:20:50.886Z,50.77
2023-02-22T17:23:17.385Z,51.05
2023-02-22T17:25:53.613Z,51.16
2023-02-22T17:28:20.102Z,51.11
2023-02-22T17:30:48.832Z,51.36
2023-02-22T17:33:15.955Z,51.59
2023-02-22T17:35:42.310Z,51.41
2023-02-22T17:38:09.513Z,51.48
2023-02-22T17:40:36.596Z,51.25
2023-02-22T17:43:03.052Z,51.37
2023-02-22T17:45:29.405Z,51.27
2023-02-22T17:47:55.739Z,51.40
2023-02-22T17:50:22.369Z,51.37
2023-02-22T17:52:51.558Z,51.28
2023-02-22T17:55:18.744Z,51.22
2023-02-22T17:57:46.495Z,51.31
2023-02-22T18:00:23.115Z,51.34
2023-02-22T18:02:50.102Z,51.42
2023-02-22T18:05:17.369Z,51.34
2023-02-22T18:07:44.141Z,51.49
2023-02-22T18:10:13.083Z,51.64
2023-02-22T18:12:39.428Z,51.42
2023-02-22T18:15:06.139Z,51.59
2023-02-22T18:17:32.470Z,51.62
2023-02-22T18:19:58.811Z,51.46
2023-02-22T18:22:25.127Z,51.70
2023-02-22T18:24:57.679Z,51.52
2023-02-22T18:27:25.961Z,51.52
2023-02-22T18:29:52.307Z,51.44
2023-02-22T18:32:18.683Z,51.36
2023-02-22T18:34:45.592Z,51.58
2023-02-22T18:37:11.948Z,51.46
2023-02-22T18:39:42.751Z,51.45
2023-02-22T18:42:11.305Z,51.47
2023-02-22T18:44:37.719Z,51.50
2023-02-22T18:47:04.050Z,51.64
2023-02-22T18:49:30.381Z,51.47
2023-02-22T18:51:56.713Z,51.55
2023-02-22T18:54:23.054Z,51.68
2023-02-22T18:56:49.383Z,51.55
2023-02-22T18:59:15.985Z,51.88
2023-02-22T19:01:48.596Z,51.84
2023-02-22T19:04:15.036Z,51.92
2023-02-22T19:06:42.968Z,51.70
2023-02-22T19:09:09.319Z,52.05
2023-02-22T19:11:35.817Z,52.01
2023-02-22T19:14:04.000Z,52.49
2023-02-22T19:16:30.387Z,52.62
2023-02-22T19:18:57.260Z,52.68
2023-02-22T19:21:24.251Z,52.44
2023-02-22T19:23:50.648Z,52.53
2023-02-22T19:26:21.128Z,50.58
2023-02-22T19:28:47.763Z,44.61
2023-02-22T19:31:14.686Z,44.29
2023-02-22T19:33:41.149Z,43.78
2023-02-22T19:36:07.993Z,45.72
2023-02-22T19:38:34.392Z,46.13
2023-02-22T19:41:00.711Z,46.78
2023-02-22T19:43:27.087Z,46.78
2023-02-22T19:45:53.509Z,46.90
2023-02-22T19:48:20.678Z,46.88
2023-02-22T19:50:49.332Z,47.47
2023-02-22T19:53:15.973Z,47.71
2023-02-22T19:55:42.305Z,47.96
2023-02-22T19:58:08.990Z,47.91
2023-02-22T20:00:35.731Z,49.16
2023-02-22T20:03:10.488Z,49.80
2023-02-22T20:05:40.177Z,49.51
2023-02-22T20:08:06.501Z,49.08
2023-02-22T20:10:34.454Z,49.54
2023-02-22T20:13:01.200Z,49.97
2023-02-22T20:15:28.035Z,50.07
2023-02-22T20:17:55.100Z,49.98
2023-02-22T20:20:24.085Z,50.81
2023-02-22T20:22:50.614Z,51.57
2023-02-22T20:25:16.979Z,51.42
2023-02-22T20:27:43.308Z,50.95
2023-02-22T20:30:10.417Z,50.75
2023-02-22T20:32:37.785Z,50.69
2023-02-22T20:35:04.606Z,50.63
2023-02-22T20:37:31.302Z,51.00
2023-02-22T20:39:59.780Z,51.53
2023-02-22T20:42:26.388Z,51.47
2023-02-22T20:44:52.789Z,51.36
2023-02-22T20:47:19.151Z,51.92
2023-02-22T20:49:45.509Z,51.58
2023-02-22T20:52:11.828Z,51.70
2023-02-22T20:54:38.173Z,51.77
2023-02-22T20:57:07.866Z,51.72
2023-02-22T20:59:34.247Z,52.00
2023-02-22T21:02:00.584Z,51.93
2023-02-22T21:04:32.820Z,52.09
2023-02-22T21:07:01.134Z,52.01
2023-02-22T21:09:27.560Z,51.96
2023-02-22T21:11:53.913Z,52.08
2023-02-22T21:14:20.316Z,52.30
2023-02-22T21:16:47.329Z,52.57
2023-02-22T21:19:27.774Z,52.17
2023-02-22T21:21:54.900Z,52.17
2023-02-22T21:24:22.250Z,52.53
2023-02-22T21:26:48.575Z,52.15
2023-02-22T21:29:14.914Z,51.69
2023-02-22T21:31:41.427Z,51.93
2023-02-22T21:34:09.406Z,51.60
2023-02-22T21:36:35.736Z,51.64
2023-02-22T21:39:08.283Z,52.04
2023-02-22T21:41:34.614Z,51.92
2023-02-22T21:44:01.029Z,52.37
2023-02-22T21:46:27.672Z,52.61
2023-02-22T21:48:54.073Z,52.73
2023-02-22T21:51:25.307Z,52.69
2023-02-22T21:53:52.318Z,52.76
2023-02-22T21:56:19.410Z,52.88
2023-02-22T21:58:46.114Z,52.59
2023-02-22T22:01:17.055Z,52.79
2023-02-22T22:03:44.543Z,52.63
2023-02-22T22:06:10.891Z,52.99
2023-02-22T22:08:40.692Z,53.04
2023-02-22T22:11:09.187Z,53.25
2023-02-22T22:13:36.432Z,52.95
2023-02-22T22:16:03.639Z,52.94
2023-02-22T22:18:29.986Z,53.13
2023-02-22T22:20:56.717Z,53.03
2023-02-22T22:23:23.057Z,52.98
2023-02-22T22:25:51.224Z,52.98
2023-02-22T22:28:17.566Z,52.89
2023-02-22T22:30:43.959Z,52.93
2023-02-22T22:33:11.262Z,53.08
2023-02-22T22:35:41.818Z,52.89
2023-02-22T22:38:09.410Z,52.95
2023-02-22T22:40:35.881Z,52.84
2023-02-22T22:43:02.247Z,52.90
2023-02-22T22:45:28.611Z,52.72
2023-02-22T22:47:55.348Z,52.86
2023-02-22T22:50:26.346Z,52.62
2023-02-22T22:52:53.341Z,52.52
2023-02-22T22:55:19.695Z,52.74
2023-02-22T22:57:46.056Z,52.64
2023-02-22T23:00:26.720Z,52.47
2023-02-22T23:02:56.111Z,52.52
2023-02-22T23:05:25.694Z,52.38
2023-02-22T23:07:52.300Z,52.42
2023-02-22T23:10:19.056Z,52.49
2023-02-22T23:12:45.435Z,52.42
2023-02-22T23:15:13.752Z,52.34
2023-02-22T23:17:42.812Z,52.35
2023-02-22T23:20:11.658Z,52.37
2023-02-22T23:22:38.497Z,52.20
2023-02-22T23:25:05.489Z,52.27
2023-02-22T23:27:31.895Z,52.20
2023-02-22T23:29:59.237Z,52.18
2023-02-22T23:32:26.950Z,51.99
2023-02-22T23:34:53.377Z,52.22
2023-02-22T23:37:20.731Z,52.04
2023-02-22T23:39:47.581Z,51.95
2023-02-22T23:42:16.742Z,51.96
2023-02-22T23:44:43.391Z,52.20
2023-02-22T23:47:09.720Z,52.17
2023-02-22T23:49:37.927Z,52.41
2023-02-22T23:52:04.814Z,52.95
2023-02-22T23:54:40.178Z,53.26
2023-02-22T23:57:08.675Z,53.16
2023-02-22T23:59:35.145Z,53.01
